Time;durP1;ratioP1;P1;durP2;ratioP2;P2;SDS_P1;SDS_P2;PMS_P1;PMS_P2;Temp;Humidity;BMP_temperature;BMP_pressure;BME280_temperature;BME280_humidity;BME280_pressure;Samples;Min_cycle;Max_cycle;Signal;HPM_P1;HPM_P2
2022/07/01 00:01:40;;;;;;;;;;;;;;;17.14;54.62;100720.59;7366543;19;20014;-65
2022/07/01 00:04:06;;;;;;;0.00;0.00;;;;;;;17.09;58.10;100719.97;7364382;19;19942;-65
2022/07/01 00:06:32;;;;;;;0.00;0.00;;;;;;;16.97;58.13;100707.38;7362147;19;20042;-65
2022/07/01 00:08:57;;;;;;;0.00;0.00;;;;;;;17.01;58.70;100725.63;7363545;19;20018;-65
2022/07/01 00:11:22;;;;;;;0.00;0.00;;;;;;;16.97;58.42;100710.00;7364024;19;20663;-65
2022/07/01 00:13:48;;;;;;;0.10;0.10;;;;;;;16.91;58.61;100718.22;7364198;19;20015;-65
2022/07/01 00:16:13;;;;;;;0.00;0.00;;;;;;;16.91;58.65;100718.22;7364429;19;20102;-65
2022/07/01 00:18:39;;;;;;;0.05;0.05;;;;;;;16.88;59.18;100721.88;7363696;19;20577;-65
2022/07/01 00:21:04;;;;;;;0.00;0.00;;;;;;;16.76;59.21;100704.00;7363857;19;20010;-65
2022/07/01 00:23:31;;;;;;;0.00;0.00;;;;;;;16.80;59.58;100716.97;7363455;19;20017;-65
2022/07/01 00:25:56;;;;;;;0.00;0.00;;;;;;;16.79;59.53;100725.81;7363084;19;20018;-65
2022/07/01 00:28:22;;;;;;;0.00;0.00;;;;;;;16.79;59.79;100725.81;7364085;19;20434;-65
2022/07/01 00:30:47;;;;;;;0.10;0.10;;;;;;;16.76;59.41;100720.66;7360534;19;20101;-65
2022/07/01 00:33:13;;;;;;;0.00;0.00;;;;;;;16.75;59.70;100723.41;7362810;19;20006;-64
2022/07/01 00:35:38;;;;;;;0.00;0.00;;;;;;;16.73;59.21;100731.38;7364646;19;21410;-65
2022/07/01 00:38:04;;;;;;;0.00;0.00;;;;;;;16.72;59.67;100729.66;7363192;19;20452;-65
2022/07/01 00:40:30;;;;;;;0.00;0.00;;;;;;;16.59;59.98;100707.41;7363192;19;20021;-65
2022/07/01 00:42:55;;;;;;;0.00;0.00;;;;;;;16.66;59.66;100719.38;7362663;19;20014;-65
2022/07/01 00:45:21;;;;;;;0.00;0.00;;;;;;;16.66;60.31;100727.28;7361854;19;20886;-65
2022/07/01 00:47:47;;;;;;;0.00;0.00;;;;;;;16.66;60.30;100719.38;7362582;19;20014;-65
2022/07/01 00:50:14;;;;;;;0.00;0.00;;;;;;;16.66;60.44;100729.91;7362618;19;20002;-65
2022/07/01 00:52:41;;;;;;;0.00;0.00;;;;;;;16.64;60.41;100726.50;7362959;19;20015;-65
2022/07/01 00:55:10;;;;;;;0.00;0.00;;;;;;;16.65;60.50;100722.94;7363166;19;20481;-65
2022/07/01 00:57:37;;;;;;;0.03;0.03;;;;;;;16.64;60.12;100726.50;7363241;19;20923;-65
2022/07/01 01:00:12;;;;;;;0.00;0.00;;;;;;;16.65;59.61;100724.72;7362561;19;20010;-65
2022/07/01 01:02:38;;;;;;;0.00;0.00;;;;;;;16.60;60.12;100738.97;7359561;19;20094;-65
2022/07/01 01:05:05;;;;;;;0.00;0.00;;;;;;;16.59;60.24;100739.06;7363402;19;20086;-65
2022/07/01 01:07:32;;;;;;;0.08;0.08;;;;;;;16.54;60.73;100725.25;7361225;19;20018;-65
2022/07/01 01:10:01;;;;;;;0.00;0.00;;;;;;;16.52;60.34;100727.06;7363847;19;20018;-65
2022/07/01 01:12:28;;;;;;;0.00;0.00;;;;;;;16.43;60.57;100719.63;7362422;19;20006;-65
2022/07/01 01:14:54;;;;;;;0.03;0.03;;;;;;;16.51;61.02;100725.38;7362368;19;20022;-64
2022/07/01 01:17:21;;;;;;;0.00;0.00;;;;;;;16.49;60.98;100729.88;7361384;19;20014;-65
2022/07/01 01:19:47;;;;;;;0.00;0.00;;;;;;;16.49;61.28;100729.88;7361475;19;20014;-65
2022/07/01 01:22:15;;;;;;;0.00;0.00;;;;;;;16.49;61.06;100733.34;7360947;19;20422;-65
2022/07/01 01:24:42;;;;;;;0.00;0.00;;;;;;;16.49;61.31;100732.50;7363754;19;20042;-65
2022/07/01 01:27:08;;;;;;;0.00;0.00;;;;;;;16.48;61.45;100741.34;7360986;19;21015;-65
2022/07/01 01:29:35;;;;;;;0.00;0.00;;;;;;;16.42;61.28;100723.16;7362315;19;20021;-65
2022/07/01 01:32:01;;;;;;;0.00;0.00;;;;;;;16.48;61.56;100743.97;7359112;19;20524;-65
2022/07/01 01:34:27;;;;;;;0.00;0.00;;;;;;;16.48;61.51;100743.97;7360725;19;20030;-65
2022/07/01 01:36:53;;;;;;;0.00;0.00;;;;;;;16.38;61.68;100729.53;7360793;19;20033;-65
2022/07/01 01:39:19;;;;;;;0.00;0.00;;;;;;;16.40;61.45;100733.78;7362824;19;20093;-65
2022/07/01 01:41:45;;;;;;;0.00;0.00;;;;;;;16.49;61.87;100754.44;7360035;19;20024;-65
2022/07/01 01:44:11;;;;;;;0.00;0.00;;;;;;;16.52;61.43;100754.28;7362684;19;20011;-65
2022/07/01 01:46:37;;;;;;;0.00;0.00;;;;;;;16.53;61.62;100749.91;7360958;19;20568;-64
2022/07/01 01:49:04;;;;;;;0.05;0.05;;;;;;;16.53;61.75;100750.75;7359013;19;20018;-65
2022/07/01 01:51:29;;;;;;;0.05;0.05;;;;;;;16.54;61.17;100751.59;7360852;19;20018;-65
2022/07/01 01:53:55;;;;;;;0.00;0.00;;;;;;;16.54;61.73;100747.19;7362138;19;20021;-65
2022/07/01 01:56:21;;;;;;;0.00;0.00;;;;;;;16.56;61.57;100755.00;7361994;19;20014;-65
2022/07/01 01:58:47;;;;;;;0.00;0.00;;;;;;;16.47;61.50;100734.34;7351990;19;20732;-65
2022/07/01 02:01:13;;;;;;;0.00;0.00;;;;;;;16.58;61.70;100745.25;7363520;19;20758;-64
2022/07/01 02:03:41;;;;;;;0.00;0.00;;;;;;;16.58;61.49;100742.63;7360979;19;20014;-65
2022/07/01 02:06:09;;;;;;;0.00;0.00;;;;;;;16.58;61.48;100748.75;7362653;19;20019;-65
2022/07/01 02:08:35;;;;;;;0.00;0.00;;;;;;;16.58;61.79;100753.16;7359898;19;20374;-65
2022/07/01 02:11:00;;;;;;;0.00;0.00;;;;;;;16.51;61.84;100735.91;7361956;19;20022;-65
2022/07/01 02:13:26;;;;;;;0.00;0.00;;;;;;;16.57;61.65;100746.16;7360167;19;20062;-65
2022/07/01 02:15:51;;;;;;;0.00;0.00;;;;;;;16.56;61.79;100749.72;7363726;19;20044;-65
2022/07/01 02:18:17;;;;;;;0.00;0.00;;;;;;;16.55;61.96;100748.03;7359941;19;20087;-65
2022/07/01 02:20:43;;;;;;;0.00;0.00;;;;;;;16.54;61.89;100752.44;7359193;19;20846;-65
2022/07/01 02:23:09;;;;;;;0.03;0.03;;;;;;;16.54;61.73;100748.97;7361892;19;20101;-65
2022/07/01 02:25:35;;;;;;;0.00;0.00;;;;;;;16.51;62.14;100752.56;7358132;19;20469;-65
2022/07/01 02:28:01;;;;;;;0.00;0.00;;;;;;;16.50;61.88;100744.75;7362819;19;20887;-66
2022/07/01 02:30:27;;;;;;;0.00;0.00;;;;;;;16.49;62.38;100743.06;7363190;19;20007;-66
2022/07/01 02:32:53;;;;;;;0.10;0.10;;;;;;;16.44;62.16;100745.91;7358078;19;20031;-65
2022/07/01 02:35:18;;;;;;;0.00;0.00;;;;;;;16.45;62.00;100752.03;7361934;19;20556;-65
2022/07/01 02:37:44;;;;;;;0.00;0.00;;;;;;;16.42;62.18;100745.09;7359792;19;20013;-65
2022/07/01 02:40:09;;;;;;;0.00;0.00;;;;;;;16.39;62.45;100747.03;7359117;19;20022;-65
2022/07/01 02:42:35;;;;;;;0.00;0.00;;;;;;;16.37;62.12;100751.50;7361823;19;20018;-65
2022/07/01 02:45:05;;;;;;;0.00;0.00;;;;;;;16.35;62.40;100749.81;7361178;19;20018;-65
2022/07/01 02:47:41;;;;;;;0.00;0.00;;;;;;;16.31;61.53;100748.22;7361248;19;20014;-64
2022/07/01 02:50:08;;;;;;;0.00;0.00;;;;;;;16.26;62.65;100750.22;7361984;19;20034;-65
2022/07/01 02:52:34;;;;;;;;;;;;;;;16.25;59.14;100751.16;7358864;19;20573;-65
2022/07/01 02:55:00;;;;;;;0.00;0.00;;;;;;;16.19;62.85;100754.06;7361127;19;19925;-65
2022/07/01 02:57:26;;;;;;;0.00;0.00;;;;;;;16.16;62.68;100755.97;7360982;19;20006;-65
2022/07/01 02:59:52;;;;;;;0.00;0.00;;;;;;;16.06;62.90;100745.00;7360283;19;20733;-65
2022/07/01 03:02:20;;;;;;;0.00;0.00;;;;;;;16.09;62.94;100752.78;7361805;19;20490;-65
2022/07/01 03:04:48;;;;;;;0.00;0.00;;;;;;;16.04;63.45;100754.75;7350268;19;20015;-66
2022/07/01 03:07:14;;;;;;;0.10;0.10;;;;;;;15.99;63.46;100748.84;7360821;19;20006;-65
2022/07/01 03:09:40;;;;;;;0.00;0.00;;;;;;;15.96;63.80;100757.72;7358444;19;20109;-64
2022/07/01 03:12:25;;;;;;;0.00;0.00;;;;;;;15.95;62.94;100753.38;7361548;19;20832;-65
2022/07/01 03:15:13;;;;;;;0.00;0.00;;;;;;;15.87;63.41;100749.38;7360885;19;20475;-65
2022/07/01 03:17:40;;;;;;;0.00;0.00;;;;;;;15.90;64.20;100754.50;7356960;19;20017;-66
2022/07/01 03:20:08;;;;;;;0.00;0.00;;;;;;;15.90;64.61;100757.13;7352079;19;20049;-65
2022/07/01 03:22:34;;;;;;;0.00;0.00;;;;;;;15.89;64.94;100755.44;7363355;19;20021;-65
2022/07/01 03:25:00;;;;;;;0.00;0.00;;;;;;;15.86;64.98;100752.91;7360077;19;20042;-65
2022/07/01 03:27:26;;;;;;;0.00;0.00;;;;;;;15.87;63.88;100760.78;7362530;19;20010;-65
2022/07/01 03:29:52;;;;;;;0.00;0.00;;;;;;;15.81;64.30;100756.63;7362334;19;20013;-65
2022/07/01 03:32:18;;;;;;;0.00;0.00;;;;;;;15.85;65.29;100756.47;7361269;19;20109;-66
2022/07/01 03:34:46;;;;;;;0.00;0.00;;;;;;;15.85;65.17;100759.09;7362437;19;20007;-65
2022/07/01 03:37:13;;;;;;;0.00;0.00;;;;;;;15.85;65.20;100767.00;7360040;19;20495;-65
2022/07/01 03:39:40;;;;;;;0.00;0.00;;;;;;;15.76;65.06;100753.34;7355755;19;20014;-66
2022/07/01 03:42:07;;;;;;;0.00;0.00;;;;;;;15.81;65.56;100756.63;7360643;19;20015;-64
2022/07/01 03:44:33;;;;;;;0.00;0.00;;;;;;;15.81;65.39;100755.75;7360536;19;20026;-64
2022/07/01 03:46:59;;;;;;;0.05;0.05;;;;;;;15.81;65.38;100761.91;7359907;19;20052;-65
2022/07/01 03:49:25;;;;;;;0.00;0.00;;;;;;;15.81;65.37;100756.63;7359268;19;20683;-65
2022/07/01 03:51:51;;;;;;;0.00;0.00;;;;;;;15.82;65.69;100753.06;7362612;19;20049;-66
2022/07/01 03:54:37;;;;;;;0.00;0.00;;;;;;;15.84;65.64;100758.25;7360213;19;20059;-65
2022/07/01 03:57:04;;;;;;;0.00;0.00;;;;;;;15.86;65.49;100752.91;7363278;19;20017;-65
2022/07/01 03:59:31;;;;;;;0.00;0.00;;;;;;;15.88;65.61;100756.34;7365405;19;20030;-65
2022/07/01 04:01:58;;;;;;;0.00;0.00;;;;;;;15.81;65.61;100746.09;7368764;19;20029;-65
2022/07/01 04:04:24;;;;;;;0.00;0.00;;;;;;;15.89;65.73;100752.78;7363766;19;20010;-64
2022/07/01 04:06:50;;;;;;;0.00;0.00;;;;;;;15.88;65.38;100751.94;7369217;19;20021;-65
2022/07/01 04:09:16;;;;;;;0.00;0.00;;;;;;;15.89;65.22;100758.06;7365995;19;20675;-65
2022/07/01 04:11:43;;;;;;;0.00;0.00;;;;;;;15.89;65.43;100753.66;7368216;19;20051;-65
2022/07/01 04:14:09;;;;;;;0.00;0.00;;;;;;;15.89;65.58;100752.78;7367100;19;20441;-64
2022/07/01 04:16:35;;;;;;;0.00;0.00;;;;;;;15.89;65.22;100758.91;7368600;19;20783;-65
2022/07/01 04:19:00;;;;;;;0.00;0.00;;;;;;;15.91;65.04;100761.47;7367660;19;20010;-66
2022/07/01 04:24:10;;;;;;;0.00;0.00;;;;;;;15.86;65.38;100759.03;7365992;19;20017;-65
2022/07/01 04:26:36;;;;;;;0.00;0.00;;;;;;;15.85;65.57;100767.00;7368966;19;20011;-65
2022/07/01 04:29:01;;;;;;;0.00;0.00;;;;;;;15.83;65.30;100765.31;7363904;19;20003;-64
2022/07/01 04:31:27;;;;;;;0.00;0.00;;;;;;;15.80;65.39;100762.78;7368660;19;22197;-65
2022/07/01 04:33:53;;;;;;;0.10;0.10;;;;;;;15.81;65.41;100764.53;7365406;19;20639;-64
2022/07/01 04:36:18;;;;;;;0.00;0.00;;;;;;;15.76;65.43;100769.13;7367056;19;21514;-65
2022/07/01 04:38:44;;;;;;;0.00;0.00;;;;;;;15.80;65.82;100768.06;7365985;19;20515;-65
2022/07/01 04:43:53;;;;;;;0.00;0.00;;;;;;;15.81;65.70;100768.91;7366589;19;20024;-65
2022/07/01 04:46:19;;;;;;;0.00;0.00;;;;;;;15.68;65.74;100746.69;7367288;19;20595;-66
2022/07/01 04:48:44;;;;;;;0.00;0.00;;;;;;;15.81;65.96;100769.78;7367111;19;20010;-65
2022/07/01 04:51:10;;;;;;;0.00;0.00;;;;;;;15.70;65.93;100743.06;7364755;19;20010;-65
2022/07/01 04:53:35;;;;;;;0.00;0.00;;;;;;;15.79;66.28;100755.81;7365417;19;20023;-65
2022/07/01 04:56:01;;;;;;;0.00;0.00;;;;;;;15.80;66.19;100760.16;7365459;19;20374;-65
2022/07/01 04:58:26;;;;;;;0.00;0.00;;;;;;;15.82;65.91;100768.88;7366553;19;20140;-65
2022/07/01 05:00:52;;;;;;;0.00;0.00;;;;;;;15.73;65.96;100742.94;7366530;19;20027;-65
2022/07/01 05:03:18;;;;;;;0.00;0.00;;;;;;;15.85;65.89;100772.28;7366413;19;20446;-65
2022/07/01 05:05:43;;;;;;;0.00;0.00;;;;;;;15.87;66.25;100770.47;7365471;19;20009;-66
2022/07/01 05:08:09;;;;;;;0.03;0.03;;;;;;;15.89;65.78;100768.59;7362156;19;20046;-65
2022/07/01 05:10:34;;;;;;;0.00;0.00;;;;;;;15.91;65.91;100774.63;7364959;19;20026;-65
2022/07/01 05:12:59;;;;;;;0.00;0.00;;;;;;;15.83;65.87;100760.03;7363732;19;20045;-65
2022/07/01 05:15:25;;;;;;;0.00;0.00;;;;;;;15.94;65.87;100774.53;7366705;19;20014;-66
2022/07/01 05:23:19;;;;;;;0.00;0.00;;;;;;;16.01;65.47;100773.31;7366070;19;20715;-66
2022/07/01 05:25:44;;;;;;;0.00;0.00;;;;;;;16.01;65.78;100773.31;7365920;19;20006;-66
2022/07/01 05:28:09;;;;;;;0.00;0.00;;;;;;;16.02;65.82;100770.63;7365192;19;20613;-65
2022/07/01 05:30:35;;;;;;;0.00;0.00;;;;;;;16.01;65.73;100768.91;7364668;19;20018;-66
2022/07/01 05:33:00;;;;;;;0.00;0.00;;;;;;;16.07;65.45;100767.78;7362499;19;20019;-66
2022/07/01 05:35:26;;;;;;;0.00;0.00;;;;;;;16.05;65.53;100767.84;7365660;19;20035;-66
2022/07/01 05:37:51;;;;;;;0.10;0.10;;;;;;;16.09;65.54;100764.16;7366654;19;20019;-65
2022/07/01 05:40:17;;;;;;;0.00;0.00;;;;;;;16.13;65.43;100769.31;7364270;19;20010;-65
2022/07/01 05:42:42;;;;;;;0.00;0.00;;;;;;;16.15;65.89;100764.81;7363479;19;20038;-66
2022/07/01 05:45:08;;;;;;;0.00;0.00;;;;;;;16.17;65.29;100776.13;7363663;19;20041;-66
2022/07/01 05:47:34;;;;;;;0.00;0.00;;;;;;;16.14;65.43;100763.97;7363944;19;20018;-65
2022/07/01 05:49:59;;;;;;;0.00;0.00;;;;;;;16.20;64.86;100779.47;7364946;19;20019;-64
2022/07/01 05:52:24;;;;;;;0.00;0.00;;;;;;;16.22;64.97;100772.38;7362772;19;20611;-65
2022/07/01 05:54:50;;;;;;;0.00;0.00;;;;;;;16.22;65.38;100764.47;7365037;19;20014;-65
2022/07/01 05:57:16;;;;;;;0.00;0.00;;;;;;;16.23;64.87;100770.59;7361823;19;20442;-65
2022/07/01 05:59:41;;;;;;;0.00;0.00;;;;;;;16.23;65.02;100768.81;7358963;19;20026;-64
2022/07/01 06:02:06;;;;;;;0.00;0.00;;;;;;;16.24;65.48;100770.53;7363622;19;20030;-66
2022/07/01 06:04:33;;;;;;;0.00;0.00;;;;;;;16.25;65.34;100774.88;7363383;19;20344;-66
2022/07/01 06:06:59;;;;;;;0.00;0.00;;;;;;;16.21;65.29;100759.25;7363330;19;20177;-65
2022/07/01 06:09:24;;;;;;;0.00;0.00;;;;;;;16.24;65.58;100764.41;7364775;19;20689;-66
2022/07/01 06:11:50;;;;;;;0.00;0.00;;;;;;;16.21;65.39;100765.38;7363371;19;20018;-65
2022/07/01 06:14:15;;;;;;;0.10;0.10;;;;;;;16.27;65.80;100770.41;7358859;19;20704;-65
2022/07/01 06:16:40;;;;;;;0.08;0.08;;;;;;;16.31;65.26;100776.34;7359944;19;20026;-65
2022/07/01 06:19:06;;;;;;;0.00;0.00;;;;;;;16.33;65.19;100769.25;7362758;19;20023;-66
2022/07/01 06:21:32;;;;;;;0.10;0.10;;;;;;;16.35;65.22;100773.53;7360408;19;20089;-66
2022/07/01 06:23:57;;;;;;;0.00;0.00;;;;;;;16.39;65.74;100778.66;7360768;19;20828;-66
2022/07/01 06:26:23;;;;;;;0.00;0.00;;;;;;;16.41;65.62;100779.44;7359104;19;20014;-66
2022/07/01 06:28:48;;;;;;;0.00;0.00;;;;;;;16.44;65.10;100776.69;7362447;19;20020;-66
2022/07/01 06:31:13;;;;;;;0.00;0.00;;;;;;;16.46;65.10;100778.28;7361616;19;20755;-66
2022/07/01 06:33:39;;;;;;;0.05;0.05;;;;;;;16.49;64.89;100779.94;7363131;19;20502;-66
2022/07/01 06:36:04;;;;;;;0.00;0.00;;;;;;;16.49;64.33;100778.16;7361061;19;20007;-65
2022/07/01 06:38:30;;;;;;;0.00;0.00;;;;;;;16.51;64.43;100781.56;7361551;19;20010;-65
2022/07/01 06:43:39;;;;;;;0.10;0.10;;;;;;;16.54;65.02;100777.97;7362798;19;20013;-65
2022/07/01 06:46:05;;;;;;;0.00;0.00;;;;;;;16.52;65.13;100775.38;7363554;19;22274;-66
2022/07/01 06:48:30;;;;;;;0.00;0.00;;;;;;;16.51;64.57;100771.03;7361039;19;20010;-65
2022/07/01 06:50:56;;;;;;;0.08;0.08;;;;;;;16.57;64.75;100777.81;7364249;19;20561;-65
2022/07/01 06:53:22;;;;;;;0.10;0.10;;;;;;;16.34;65.03;100744.59;7363388;19;20023;-65
2022/07/01 06:55:47;;;;;;;0.00;0.00;;;;;;;16.50;64.97;100765.84;7363076;19;20036;-66
2022/07/01 06:58:13;;;;;;;0.00;0.00;;;;;;;16.61;65.01;100776.75;7361380;19;20341;-65
2022/07/01 07:00:38;;;;;;;0.00;0.00;;;;;;;16.62;64.88;100770.53;7362602;19;20011;-65
2022/07/01 07:03:04;;;;;;;0.00;0.00;;;;;;;16.60;65.20;100761.84;7362619;19;20007;-65
2022/07/01 07:05:30;;;;;;;0.00;0.00;;;;;;;16.75;65.11;100776.97;7357039;19;20016;-65
2022/07/01 07:07:56;;;;;;;0.03;0.03;;;;;;;16.80;64.87;100774.13;7359703;19;20007;-65
2022/07/01 07:10:22;;;;;;;0.00;0.00;;;;;;;16.88;64.58;100787.81;7360051;19;20010;-66
2022/07/01 07:12:47;;;;;;;0.00;0.00;;;;;;;16.94;64.71;100786.69;7358241;19;20014;-64
2022/07/01 07:15:13;;;;;;;0.00;0.00;;;;;;;16.98;64.56;100780.31;7360889;19;20006;-65
2022/07/01 07:17:38;;;;;;;0.00;0.00;;;;;;;17.02;64.45;100780.09;7357715;19;20007;-65
2022/07/01 07:20:04;;;;;;;0.00;0.00;;;;;;;17.05;64.19;100782.59;7353984;19;20039;-65
2022/07/01 07:22:30;;;;;;;0.00;0.00;;;;;;;17.10;64.55;100771.81;7359229;19;20042;-65
2022/07/01 07:24:55;;;;;;;0.00;0.00;;;;;;;17.12;64.55;100769.94;7359759;19;20014;-65
2022/07/01 07:27:20;;;;;;;0.00;0.00;;;;;;;17.17;64.18;100772.34;7358769;19;20023;-65
2022/07/01 07:29:46;;;;;;;0.00;0.00;;;;;;;17.20;64.02;100765.16;7363327;19;20035;-65
2022/07/01 07:32:11;;;;;;;0.00;0.00;;;;;;;17.25;64.37;100767.56;7361233;19;20030;-65
2022/07/01 07:34:37;;;;;;;0.00;0.00;;;;;;;17.30;64.16;100763.78;7368812;19;20014;-65
2022/07/01 07:37:03;;;;;;;0.00;0.00;;;;;;;17.37;64.36;100762.53;7365335;19;20512;-66
2022/07/01 07:39:28;;;;;;;0.00;0.00;;;;;;;17.45;63.71;100772.72;7368027;19;20054;-65
2022/07/01 07:41:54;;;;;;;0.00;0.00;;;;;;;17.54;63.08;100766.13;7366561;19;20019;-65
2022/07/01 07:44:19;;;;;;;0.00;0.00;;;;;;;17.62;63.52;100769.22;7366899;19;20007;-65
2022/07/01 07:46:44;;;;;;;0.03;0.03;;;;;;;17.71;63.08;100766.09;7365727;19;20390;-64
2022/07/01 07:49:10;;;;;;;0.00;0.00;;;;;;;17.80;62.69;100763.03;7369992;19;20422;-65
2022/07/01 07:51:35;;;;;;;0.10;0.10;;;;;;;17.88;62.25;100760.81;7366289;19;20015;-65
2022/07/01 07:54:02;;;;;;;0.00;0.00;;;;;;;17.95;62.92;100757.91;7368109;19;20014;-66
2022/07/01 07:56:27;;;;;;;0.00;0.00;;;;;;;18.09;62.51;100758.84;7360230;19;20078;-66
2022/07/01 07:58:53;;;;;;;0.00;0.00;;;;;;;18.20;62.55;100760.94;7365724;19;20082;-64
2022/07/01 08:01:18;;;;;;;0.00;0.00;;;;;;;18.32;61.14;100749.69;7366132;19;20156;-65
2022/07/01 08:03:45;;;;;;;0.00;0.00;;;;;;;18.42;60.80;100756.19;7366625;19;20373;-65
2022/07/01 08:06:10;;;;;;;0.00;0.00;;;;;;;18.49;60.74;100755.84;7367338;19;20472;-66
2022/07/01 08:08:36;;;;;;;0.00;0.00;;;;;;;18.55;59.93;100764.31;7365251;19;20010;-65
2022/07/01 08:11:01;;;;;;;0.00;0.00;;;;;;;18.57;60.00;100762.44;7367548;19;20114;-66
2022/07/01 08:13:28;;;;;;;0.00;0.00;;;;;;;18.59;59.95;100757.06;7366268;19;20041;-65
2022/07/01 08:15:53;;;;;;;0.00;0.00;;;;;;;18.51;59.71;100743.41;7368038;19;20066;-65
2022/07/01 08:18:19;;;;;;;0.10;0.10;;;;;;;18.61;59.96;100755.19;7362569;19;20487;-66
2022/07/01 08:20:45;;;;;;;0.00;0.00;;;;;;;18.62;59.11;100762.19;7358300;19;20010;-65
2022/07/01 08:23:10;;;;;;;0.00;0.00;;;;;;;18.55;58.88;100750.22;7366000;19;20010;-65
2022/07/01 08:25:36;;;;;;;0.00;0.00;;;;;;;18.61;59.23;100760.47;7364958;19;20015;-65
2022/07/01 08:28:03;;;;;;;0.00;0.00;;;;;;;18.65;58.85;100762.00;7368493;19;20007;-65
2022/07/01 08:30:28;;;;;;;0.00;0.00;;;;;;;18.68;58.73;100761.88;7366229;19;20011;-65
2022/07/01 08:32:54;;;;;;;0.00;0.00;;;;;;;18.75;58.13;100772.97;7367483;19;20680;-64
2022/07/01 08:35:19;;;;;;;0.10;0.10;;;;;;;18.79;58.55;100763.91;7367271;19;20558;-64
2022/07/01 08:37:45;;;;;;;0.00;0.00;;;;;;;18.86;57.96;100760.84;7368412;19;20040;-65
2022/07/01 08:40:10;;;;;;;0.00;0.00;;;;;;;18.95;58.24;100758.63;7366231;19;20039;-64
2022/07/01 08:42:36;;;;;;;0.00;0.00;;;;;;;19.03;58.33;100753.75;7363725;19;20015;-65
2022/07/01 08:45:01;;;;;;;0.00;0.00;;;;;;;19.12;57.92;100761.19;7368603;19;20123;-65
2022/07/01 08:47:26;;;;;;;0.00;0.00;;;;;;;19.18;57.97;100760.81;7368339;19;20046;-65
2022/07/01 08:49:52;;;;;;;0.00;0.00;;;;;;;19.25;56.67;100762.16;7367596;19;20010;-65
2022/07/01 08:52:17;;;;;;;0.00;0.00;;;;;;;19.29;57.08;100757.53;7367523;19;20010;-65
2022/07/01 08:54:43;;;;;;;0.10;0.10;;;;;;;19.33;56.44;100759.94;7361946;19;20018;-64
2022/07/01 08:57:08;;;;;;;0.10;0.10;;;;;;;19.37;56.40;100761.47;7367282;19;20006;-65
2022/07/01 08:59:34;;;;;;;0.00;0.00;;;;;;;19.42;56.45;100754.09;7366112;19;20021;-65
2022/07/01 09:02:03;;;;;;;0.08;0.08;;;;;;;19.49;56.77;100753.72;7368091;19;20010;-65
2022/07/01 09:04:29;;;;;;;0.10;0.10;;;;;;;19.55;56.48;100754.22;7364223;19;20025;-65
2022/07/01 09:07:07;;;;;;;0.10;0.10;;;;;;;19.69;56.38;100756.94;7366064;19;20486;-65
2022/07/01 09:09:37;;;;;;;0.00;0.00;;;;;;;19.74;56.08;100753.16;7365431;19;20010;-65
2022/07/01 09:12:04;;;;;;;0.00;0.00;;;;;;;19.75;55.56;100753.06;7367779;19;20485;-65
2022/07/01 09:14:31;;;;;;;0.07;0.07;;;;;;;19.84;54.99;100752.50;7365804;19;20019;-65
2022/07/01 09:16:58;;;;;;;;;;;;;;;20.01;56.89;100759.44;7366152;19;20421;-65
2022/07/01 09:19:24;;;;;;;0.10;0.10;;;;;;;19.99;53.93;100763.13;7364791;19;19945;-64
2022/07/01 09:22:01;;;;;;;0.00;0.00;;;;;;;20.08;54.92;100759.94;7364472;19;20010;-64
2022/07/01 09:24:34;;;;;;;0.00;0.00;;;;;;;20.07;54.39;100756.44;7365558;19;20011;-65
2022/07/01 09:27:11;;;;;;;0.00;0.00;;;;;;;20.19;54.48;100760.13;7365635;19;20011;-65
2022/07/01 09:29:43;;;;;;;;;;;;;;;20.35;56.00;100747.59;7367024;19;20082;-65
2022/07/01 09:32:11;;;;;;;0.05;0.05;;;;;;;20.35;53.40;100744.94;7365602;19;19938;-65
2022/07/01 09:34:48;;;;;;;0.00;0.00;;;;;;;20.44;54.33;100747.03;7365807;19;20112;-65
2022/07/01 09:37:15;;;;;;;0.00;0.00;;;;;;;20.51;52.55;100752.81;7364504;19;20007;-65
2022/07/01 09:39:51;;;;;;;0.00;0.00;;;;;;;20.68;53.42;100744.66;7366262;19;20018;-65
2022/07/01 09:42:21;;;;;;;0.00;0.00;;;;;;;20.78;51.82;100744.03;7365090;19;20020;-64
2022/07/01 09:45:06;;;;;;;0.00;0.00;;;;;;;21.08;53.71;100743.84;7365129;19;20010;-64
2022/07/01 09:47:33;;;;;;;0.05;0.05;;;;;;;21.30;50.47;100728.22;7365868;19;20009;-65
2022/07/01 09:49:59;;;;;;;0.10;0.10;;;;;;;21.68;49.79;100743.38;7365558;19;20027;-65
2022/07/01 09:52:25;;;;;;;0.03;0.03;;;;;;;21.78;48.69;100728.50;7365735;19;20007;-65
2022/07/01 09:54:51;;;;;;;0.03;0.03;;;;;;;21.85;48.74;100728.94;7363764;19;20017;-65
2022/07/01 09:57:18;;;;;;;0.05;0.05;;;;;;;21.99;49.24;100742.94;7366927;19;20714;-66
2022/07/01 09:59:43;;;;;;;0.00;0.00;;;;;;;22.08;48.78;100743.28;7363673;19;20019;-65
2022/07/01 10:02:10;;;;;;;0.00;0.00;;;;;;;22.16;49.13;100733.00;7366807;19;20037;-65
2022/07/01 10:04:45;;;;;;;0.00;0.00;;;;;;;22.27;48.90;100733.06;7363243;19;20010;-65
2022/07/01 10:07:29;;;;;;;0.00;0.00;;;;;;;22.26;50.31;100723.41;7366335;19;20579;-65
2022/07/01 10:10:03;;;;;;;0.00;0.00;;;;;;;22.28;47.69;100724.13;7363838;19;20014;-64
2022/07/01 10:12:36;;;;;;;0.00;0.00;;;;;;;22.22;48.24;100721.91;7362401;19;20025;-66
2022/07/01 10:15:05;;;;;;;0.00;0.00;;;;;;;22.30;47.31;100724.00;7366214;19;20018;-66
2022/07/01 10:17:43;;;;;;;0.10;0.10;;;;;;;22.37;48.08;100723.47;7363029;19;21545;-66
2022/07/01 10:20:12;;;;;;;0.00;0.00;;;;;;;22.43;47.35;100723.03;7363986;19;20469;-65
2022/07/01 10:22:39;;;;;;;0.00;0.00;;;;;;;22.49;45.67;100730.56;7362742;19;20010;-65
2022/07/01 10:25:39;;;;;;;0.00;0.00;;;;;;;22.60;48.08;100731.59;7363273;19;20607;-65
2022/07/01 10:28:28;;;;;;;0.03;0.03;;;;;;;22.53;47.93;100725.88;7260354;19;2004426;-65
2022/07/01 10:31:04;;;;;;;0.00;0.00;;;;;;;22.51;46.66;100720.69;7363883;19;21126;-65
2022/07/01 10:33:42;;;;;;;0.00;0.00;;;;;;;22.60;46.48;100726.28;7364274;19;20485;-66
2022/07/01 10:36:35;;;;;;;0.00;0.00;;;;;;;22.70;46.10;100711.34;7364063;19;20491;-66
2022/07/01 10:39:06;;;;;;;0.00;0.00;;;;;;;22.63;44.78;100710.09;7260501;19;2004586;-66
2022/07/01 10:41:35;;;;;;;0.00;0.00;;;;;;;22.64;44.40;100701.16;7359917;19;20031;-66
2022/07/01 10:44:08;;;;;;;0.08;0.08;;;;;;;22.62;44.84;100692.44;7362381;19;20014;-67
2022/07/01 10:46:56;;;;;;;0.10;0.10;;;;;;;22.70;46.25;100706.00;7363413;19;20003;-66
2022/07/01 10:49:52;;;;;;;0.10;0.10;;;;;;;22.69;46.26;100694.53;7365114;19;20074;-66
2022/07/01 10:52:18;;;;;;;0.00;0.00;;;;;;;22.62;44.37;100697.75;7259991;19;2004351;-66
2022/07/01 10:54:45;;;;;;;0.00;0.00;;;;;;;22.62;43.63;100693.28;7361039;19;20006;-66
2022/07/01 10:57:19;;;;;;;0.00;0.00;;;;;;;22.72;45.34;100698.78;7362442;19;20047;-66
2022/07/01 10:59:59;;;;;;;0.00;0.00;;;;;;;22.84;43.25;100692.53;7361165;19;20027;-66
2022/07/01 11:02:25;;;;;;;0.00;0.00;;;;;;;23.12;43.34;100690.53;7363278;19;20007;-66
2022/07/01 11:04:54;;;;;;;0.10;0.10;;;;;;;23.47;42.75;100691.34;7361655;19;20022;-65
2022/07/01 11:07:23;;;;;;;0.00;0.00;;;;;;;23.68;41.86;100682.69;7365296;19;20416;-66
2022/07/01 11:09:48;;;;;;;0.03;0.03;;;;;;;24.01;42.09;100690.69;7368288;19;20114;-66
2022/07/01 11:12:17;;;;;;;0.10;0.10;;;;;;;24.17;41.52;100678.81;7372176;19;20014;-66
2022/07/01 11:14:43;;;;;;;0.03;0.03;;;;;;;24.31;40.57;100681.22;7368232;19;20017;-66
2022/07/01 11:17:09;;;;;;;0.03;0.03;;;;;;;24.46;39.62;100688.03;7369928;19;20026;-66
2022/07/01 11:19:35;;;;;;;0.10;0.10;;;;;;;24.55;39.07;100684.59;7367286;19;20854;-66
2022/07/01 11:22:02;;;;;;;0.00;0.00;;;;;;;24.56;38.79;100669.44;7369194;19;20034;-65
2022/07/01 11:24:28;;;;;;;0.10;0.10;;;;;;;24.47;39.27;100676.38;7368423;19;20041;-66
2022/07/01 11:27:07;;;;;;;0.00;0.00;;;;;;;24.48;42.14;100667.41;7370507;19;20010;-66
2022/07/01 11:29:34;;;;;;;0.00;0.00;;;;;;;24.44;39.45;100660.63;7368627;19;20423;-66
2022/07/01 11:31:59;;;;;;;0.00;0.00;;;;;;;24.33;39.31;100652.56;7369651;19;20036;-65
2022/07/01 11:34:28;;;;;;;0.03;0.03;;;;;;;24.46;40.93;100666.66;7368176;19;20565;-66
2022/07/01 11:39:41;;;;;;;0.10;0.10;;;;;;;24.39;40.89;100683.31;7368741;19;20371;-66
2022/07/01 11:42:07;;;;;;;0.10;0.10;;;;;;;24.33;41.56;100679.25;7366360;19;20353;-65
2022/07/01 11:44:44;;;;;;;0.00;0.00;;;;;;;24.25;42.80;100674.56;7368922;19;20006;-66